sensor_id;sensor_type;location;lat;lon;timestamp;P1;durP1;ratioP1;P2;durP2;ratioP2
4422;SDS011;2224;49.814;8.650;2023-04-24T00:01:42;1.40;;;1.30;;
4422;SDS011;2224;49.814;8.650;2023-04-24T00:04:08;2.03;;;1.63;;
4422;SDS011;2224;49.814;8.650;2023-04-24T00:06:35;2.47;;;1.70;;
4422;SDS011;2224;49.814;8.650;2023-04-24T00:09:07;2.80;;;1.40;;
4422;SDS011;2224;49.814;8.650;2023-04-24T00:11:35;2.40;;;1.30;;
4422;SDS011;2224;49.814;8.650;2023-04-24T00:14:00;2.17;;;1.53;;
4422;SDS011;2224;49.814;8.650;2023-04-24T00:16:26;3.40;;;1.47;;
4422;SDS011;2224;49.814;8.650;2023-04-24T00:18:51;2.60;;;1.40;;
4422;SDS011;2224;49.814;8.650;2023-04-24T00:21:21;2.60;;;1.37;;
4422;SDS011;2224;49.814;8.650;2023-04-24T00:23:46;3.87;;;2.10;;
4422;SDS011;2224;49.814;8.650;2023-04-24T00:26:12;1.60;;;1.30;;
4422;SDS011;2224;49.814;8.650;2023-04-24T00:28:37;3.80;;;2.00;;
4422;SDS011;2224;49.814;8.650;2023-04-24T00:31:02;2.60;;;1.77;;
4422;SDS011;2224;49.814;8.650;2023-04-24T00:33:28;1.90;;;1.40;;
4422;SDS011;2224;49.814;8.650;2023-04-24T00:35:53;1.40;;;1.27;;
4422;SDS011;2224;49.814;8.650;2023-04-24T00:38:18;1.80;;;1.70;;
4422;SDS011;2224;49.814;8.650;2023-04-24T00:40:44;1.73;;;1.53;;
4422;SDS011;2224;49.814;8.650;2023-04-24T00:43:09;2.60;;;1.43;;
4422;SDS011;2224;49.814;8.650;2023-04-24T00:45:35;1.97;;;1.77;;
4422;SDS011;2224;49.814;8.650;2023-04-24T00:48:01;2.33;;;2.13;;
4422;SDS011;2224;49.814;8.650;2023-04-24T00:50:26;1.50;;;1.40;;
4422;SDS011;2224;49.814;8.650;2023-04-24T00:52:52;3.30;;;1.97;;
4422;SDS011;2224;49.814;8.650;2023-04-24T00:55:17;2.33;;;1.43;;
4422;SDS011;2224;49.814;8.650;2023-04-24T00:57:43;2.80;;;1.77;;
4422;SDS011;2224;49.814;8.650;2023-04-24T01:00:09;3.50;;;1.60;;
4422;SDS011;2224;49.814;8.650;2023-04-24T01:02:39;1.93;;;1.70;;
4422;SDS011;2224;49.814;8.650;2023-04-24T01:05:06;2.40;;;1.73;;
4422;SDS011;2224;49.814;8.650;2023-04-24T01:07:32;2.53;;;1.77;;
4422;SDS011;2224;49.814;8.650;2023-04-24T01:09:58;2.43;;;2.00;;
4422;SDS011;2224;49.814;8.650;2023-04-24T01:12:23;2.57;;;1.87;;
4422;SDS011;2224;49.814;8.650;2023-04-24T01:14:49;3.50;;;2.23;;
4422;SDS011;2224;49.814;8.650;2023-04-24T01:17:14;2.00;;;1.80;;
4422;SDS011;2224;49.814;8.650;2023-04-24T01:19:40;2.00;;;1.70;;
4422;SDS011;2224;49.814;8.650;2023-04-24T01:22:09;2.20;;;1.80;;
4422;SDS011;2224;49.814;8.650;2023-04-24T01:24:36;2.50;;;1.80;;
4422;SDS011;2224;49.814;8.650;2023-04-24T01:27:02;2.03;;;1.80;;
4422;SDS011;2224;49.814;8.650;2023-04-24T01:29:27;3.00;;;1.93;;
4422;SDS011;2224;49.814;8.650;2023-04-24T01:31:53;3.40;;;2.13;;
4422;SDS011;2224;49.814;8.650;2023-04-24T01:34:18;2.60;;;1.50;;
4422;SDS011;2224;49.814;8.650;2023-04-24T01:36:45;3.20;;;2.93;;
4422;SDS011;2224;49.814;8.650;2023-04-24T01:39:11;2.27;;;1.80;;
4422;SDS011;2224;49.814;8.650;2023-04-24T01:41:36;3.73;;;1.90;;
4422;SDS011;2224;49.814;8.650;2023-04-24T01:44:01;4.60;;;1.83;;
4422;SDS011;2224;49.814;8.650;2023-04-24T01:46:27;4.93;;;2.37;;
4422;SDS011;2224;49.814;8.650;2023-04-24T01:48:52;4.33;;;2.40;;
4422;SDS011;2224;49.814;8.650;2023-04-24T01:51:18;5.53;;;2.53;;
4422;SDS011;2224;49.814;8.650;2023-04-24T01:53:43;2.47;;;1.60;;
4422;SDS011;2224;49.814;8.650;2023-04-24T01:56:09;5.33;;;1.60;;
4422;SDS011;2224;49.814;8.650;2023-04-24T01:58:34;9.43;;;2.10;;
4422;SDS011;2224;49.814;8.650;2023-04-24T02:01:00;1.70;;;1.47;;
4422;SDS011;2224;49.814;8.650;2023-04-24T02:03:26;3.47;;;1.70;;
4422;SDS011;2224;49.814;8.650;2023-04-24T02:05:51;3.00;;;2.03;;
4422;SDS011;2224;49.814;8.650;2023-04-24T02:08:17;2.93;;;1.90;;
4422;SDS011;2224;49.814;8.650;2023-04-24T02:10:42;2.33;;;1.60;;
4422;SDS011;2224;49.814;8.650;2023-04-24T02:13:07;2.87;;;1.83;;
4422;SDS011;2224;49.814;8.650;2023-04-24T02:15:33;2.33;;;2.00;;
4422;SDS011;2224;49.814;8.650;2023-04-24T02:17:58;4.33;;;2.20;;
4422;SDS011;2224;49.814;8.650;2023-04-24T02:20:23;3.70;;;2.03;;
4422;SDS011;2224;49.814;8.650;2023-04-24T02:22:49;2.90;;;1.90;;
4422;SDS011;2224;49.814;8.650;2023-04-24T02:25:14;2.37;;;2.17;;
4422;SDS011;2224;49.814;8.650;2023-04-24T02:27:39;3.10;;;2.20;;
4422;SDS011;2224;49.814;8.650;2023-04-24T02:30:05;2.00;;;1.83;;
4422;SDS011;2224;49.814;8.650;2023-04-24T02:32:31;3.30;;;2.23;;
4422;SDS011;2224;49.814;8.650;2023-04-24T02:34:56;3.03;;;1.73;;
4422;SDS011;2224;49.814;8.650;2023-04-24T02:37:21;2.50;;;1.97;;
4422;SDS011;2224;49.814;8.650;2023-04-24T02:39:47;2.43;;;2.10;;
4422;SDS011;2224;49.814;8.650;2023-04-24T02:42:12;2.87;;;2.20;;
4422;SDS011;2224;49.814;8.650;2023-04-24T02:44:37;3.10;;;2.80;;
4422;SDS011;2224;49.814;8.650;2023-04-24T02:47:03;2.73;;;1.93;;
4422;SDS011;2224;49.814;8.650;2023-04-24T02:49:28;2.20;;;2.00;;
4422;SDS011;2224;49.814;8.650;2023-04-24T02:51:53;3.63;;;2.00;;
4422;SDS011;2224;49.814;8.650;2023-04-24T02:54:19;3.90;;;2.10;;
4422;SDS011;2224;49.814;8.650;2023-04-24T02:56:44;2.97;;;2.60;;
4422;SDS011;2224;49.814;8.650;2023-04-24T02:59:10;3.07;;;2.53;;
4422;SDS011;2224;49.814;8.650;2023-04-24T03:01:35;2.60;;;2.10;;
4422;SDS011;2224;49.814;8.650;2023-04-24T03:04:01;2.53;;;2.10;;
4422;SDS011;2224;49.814;8.650;2023-04-24T03:06:26;2.50;;;2.30;;
4422;SDS011;2224;49.814;8.650;2023-04-24T03:08:52;3.07;;;2.53;;
4422;SDS011;2224;49.814;8.650;2023-04-24T03:11:17;2.37;;;2.23;;
4422;SDS011;2224;49.814;8.650;2023-04-24T03:13:42;3.30;;;2.60;;
4422;SDS011;2224;49.814;8.650;2023-04-24T03:16:08;4.43;;;2.30;;
4422;SDS011;2224;49.814;8.650;2023-04-24T03:18:33;2.50;;;2.30;;
4422;SDS011;2224;49.814;8.650;2023-04-24T03:20:58;4.60;;;3.03;;
4422;SDS011;2224;49.814;8.650;2023-04-24T03:23:24;2.40;;;2.20;;
4422;SDS011;2224;49.814;8.650;2023-04-24T03:25:49;2.30;;;2.10;;
4422;SDS011;2224;49.814;8.650;2023-04-24T03:28:14;2.53;;;2.33;;
4422;SDS011;2224;49.814;8.650;2023-04-24T03:30:40;3.43;;;2.30;;
4422;SDS011;2224;49.814;8.650;2023-04-24T03:33:05;3.53;;;2.50;;
4422;SDS011;2224;49.814;8.650;2023-04-24T03:35:31;3.50;;;2.53;;
4422;SDS011;2224;49.814;8.650;2023-04-24T03:37:56;2.90;;;2.53;;
4422;SDS011;2224;49.814;8.650;2023-04-24T03:40:22;2.80;;;2.60;;
4422;SDS011;2224;49.814;8.650;2023-04-24T03:42:47;3.53;;;2.97;;
4422;SDS011;2224;49.814;8.650;2023-04-24T03:45:12;5.00;;;2.60;;
4422;SDS011;2224;49.814;8.650;2023-04-24T03:47:38;5.87;;;2.57;;
4422;SDS011;2224;49.814;8.650;2023-04-24T03:50:03;4.70;;;3.30;;
4422;SDS011;2224;49.814;8.650;2023-04-24T03:52:28;4.67;;;3.03;;
4422;SDS011;2224;49.814;8.650;2023-04-24T03:54:54;2.80;;;2.60;;
4422;SDS011;2224;49.814;8.650;2023-04-24T03:57:20;4.60;;;2.67;;
4422;SDS011;2224;49.814;8.650;2023-04-24T03:59:45;5.10;;;2.60;;
4422;SDS011;2224;49.814;8.650;2023-04-24T04:02:11;6.00;;;3.20;;
4422;SDS011;2224;49.814;8.650;2023-04-24T04:04:36;4.03;;;3.20;;
4422;SDS011;2224;49.814;8.650;2023-04-24T04:07:01;5.10;;;3.03;;
4422;SDS011;2224;49.814;8.650;2023-04-24T04:09:28;4.67;;;3.13;;
4422;SDS011;2224;49.814;8.650;2023-04-24T04:11:53;6.87;;;3.20;;
4422;SDS011;2224;49.814;8.650;2023-04-24T04:14:18;3.97;;;3.30;;
4422;SDS011;2224;49.814;8.650;2023-04-24T04:16:44;5.03;;;3.60;;
4422;SDS011;2224;49.814;8.650;2023-04-24T04:19:09;5.07;;;3.13;;
4422;SDS011;2224;49.814;8.650;2023-04-24T04:21:34;5.17;;;4.40;;
4422;SDS011;2224;49.814;8.650;2023-04-24T04:24:00;6.57;;;5.17;;
4422;SDS011;2224;49.814;8.650;2023-04-24T04:26:25;4.37;;;3.70;;
4422;SDS011;2224;49.814;8.650;2023-04-24T04:28:51;5.30;;;4.30;;
4422;SDS011;2224;49.814;8.650;2023-04-24T04:31:17;10.73;;;4.17;;
4422;SDS011;2224;49.814;8.650;2023-04-24T04:33:42;4.40;;;4.00;;
4422;SDS011;2224;49.814;8.650;2023-04-24T04:36:08;5.43;;;4.90;;
4422;SDS011;2224;49.814;8.650;2023-04-24T04:38:33;4.27;;;3.87;;
4422;SDS011;2224;49.814;8.650;2023-04-24T04:40:59;4.87;;;4.47;;
4422;SDS011;2224;49.814;8.650;2023-04-24T04:43:25;4.97;;;4.50;;
4422;SDS011;2224;49.814;8.650;2023-04-24T04:45:51;4.83;;;4.43;;
4422;SDS011;2224;49.814;8.650;2023-04-24T04:48:17;5.70;;;4.90;;
4422;SDS011;2224;49.814;8.650;2023-04-24T04:50:43;4.80;;;4.40;;
4422;SDS011;2224;49.814;8.650;2023-04-24T04:53:09;5.00;;;4.60;;
4422;SDS011;2224;49.814;8.650;2023-04-24T04:55:34;5.70;;;5.17;;
4422;SDS011;2224;49.814;8.650;2023-04-24T04:57:59;5.60;;;5.10;;
4422;SDS011;2224;49.814;8.650;2023-04-24T05:00:25;5.77;;;5.17;;
4422;SDS011;2224;49.814;8.650;2023-04-24T05:02:51;6.07;;;5.20;;
4422;SDS011;2224;49.814;8.650;2023-04-24T05:05:16;5.37;;;4.90;;
4422;SDS011;2224;49.814;8.650;2023-04-24T05:07:42;5.80;;;5.30;;
4422;SDS011;2224;49.814;8.650;2023-04-24T05:10:08;5.13;;;4.73;;
4422;SDS011;2224;49.814;8.650;2023-04-24T05:12:33;6.37;;;5.83;;
4422;SDS011;2224;49.814;8.650;2023-04-24T05:14:59;6.00;;;5.40;;
4422;SDS011;2224;49.814;8.650;2023-04-24T05:17:24;6.23;;;5.63;;
4422;SDS011;2224;49.814;8.650;2023-04-24T05:19:50;7.03;;;6.30;;
4422;SDS011;2224;49.814;8.650;2023-04-24T05:22:16;8.83;;;5.90;;
4422;SDS011;2224;49.814;8.650;2023-04-24T05:24:43;6.80;;;6.20;;
4422;SDS011;2224;49.814;8.650;2023-04-24T05:27:08;10.60;;;5.67;;
4422;SDS011;2224;49.814;8.650;2023-04-24T05:29:34;6.00;;;5.50;;
4422;SDS011;2224;49.814;8.650;2023-04-24T05:31:59;7.43;;;6.17;;
4422;SDS011;2224;49.814;8.650;2023-04-24T05:34:25;6.37;;;5.63;;
4422;SDS011;2224;49.814;8.650;2023-04-24T05:36:50;7.10;;;6.20;;
4422;SDS011;2224;49.814;8.650;2023-04-24T05:39:16;6.80;;;5.60;;
4422;SDS011;2224;49.814;8.650;2023-04-24T05:41:42;5.67;;;5.17;;
4422;SDS011;2224;49.814;8.650;2023-04-24T05:44:07;6.67;;;6.07;;
4422;SDS011;2224;49.814;8.650;2023-04-24T05:46:33;5.90;;;5.40;;
4422;SDS011;2224;49.814;8.650;2023-04-24T05:48:58;6.53;;;6.00;;
4422;SDS011;2224;49.814;8.650;2023-04-24T05:51:24;5.63;;;5.23;;
4422;SDS011;2224;49.814;8.650;2023-04-24T05:53:49;7.17;;;6.17;;
4422;SDS011;2224;49.814;8.650;2023-04-24T05:56:15;6.03;;;5.53;;
4422;SDS011;2224;49.814;8.650;2023-04-24T05:58:40;6.00;;;5.43;;
4422;SDS011;2224;49.814;8.650;2023-04-24T06:01:06;6.30;;;5.70;;
4422;SDS011;2224;49.814;8.650;2023-04-24T06:03:31;6.73;;;6.00;;
4422;SDS011;2224;49.814;8.650;2023-04-24T06:05:56;5.67;;;4.90;;
4422;SDS011;2224;49.814;8.650;2023-04-24T06:08:22;6.70;;;6.10;;
4422;SDS011;2224;49.814;8.650;2023-04-24T06:10:47;7.37;;;6.03;;
4422;SDS011;2224;49.814;8.650;2023-04-24T06:13:12;5.70;;;5.20;;
4422;SDS011;2224;49.814;8.650;2023-04-24T06:15:37;6.40;;;5.80;;
4422;SDS011;2224;49.814;8.650;2023-04-24T06:18:03;5.50;;;5.00;;
4422;SDS011;2224;49.814;8.650;2023-04-24T06:20:28;7.63;;;5.83;;
4422;SDS011;2224;49.814;8.650;2023-04-24T06:22:54;5.97;;;5.43;;
4422;SDS011;2224;49.814;8.650;2023-04-24T06:25:19;7.10;;;6.40;;
4422;SDS011;2224;49.814;8.650;2023-04-24T06:27:45;6.70;;;6.00;;
4422;SDS011;2224;49.814;8.650;2023-04-24T06:30:10;6.70;;;5.60;;
4422;SDS011;2224;49.814;8.650;2023-04-24T06:32:36;7.70;;;6.10;;
4422;SDS011;2224;49.814;8.650;2023-04-24T06:35:01;6.87;;;6.23;;
4422;SDS011;2224;49.814;8.650;2023-04-24T06:37:26;9.43;;;8.53;;
4422;SDS011;2224;49.814;8.650;2023-04-24T06:39:52;6.23;;;5.73;;
4422;SDS011;2224;49.814;8.650;2023-04-24T06:42:17;6.43;;;5.83;;
4422;SDS011;2224;49.814;8.650;2023-04-24T06:44:43;8.37;;;7.50;;
4422;SDS011;2224;49.814;8.650;2023-04-24T06:47:08;7.43;;;6.73;;
4422;SDS011;2224;49.814;8.650;2023-04-24T06:49:35;7.97;;;6.40;;
4422;SDS011;2224;49.814;8.650;2023-04-24T06:52:01;7.17;;;6.47;;
4422;SDS011;2224;49.814;8.650;2023-04-24T06:54:27;9.10;;;7.60;;
4422;SDS011;2224;49.814;8.650;2023-04-24T06:56:52;8.10;;;7.30;;
4422;SDS011;2224;49.814;8.650;2023-04-24T06:59:17;9.80;;;7.63;;
4422;SDS011;2224;49.814;8.650;2023-04-24T07:01:42;9.23;;;7.30;;
4422;SDS011;2224;49.814;8.650;2023-04-24T07:04:08;8.77;;;7.57;;
4422;SDS011;2224;49.814;8.650;2023-04-24T07:06:33;9.37;;;8.37;;
4422;SDS011;2224;49.814;8.650;2023-04-24T07:09:00;9.87;;;8.20;;
4422;SDS011;2224;49.814;8.650;2023-04-24T07:11:26;9.00;;;8.10;;
4422;SDS011;2224;49.814;8.650;2023-04-24T07:13:54;8.80;;;7.60;;
4422;SDS011;2224;49.814;8.650;2023-04-24T07:16:19;10.10;;;8.77;;
4422;SDS011;2224;49.814;8.650;2023-04-24T07:18:45;8.13;;;7.40;;
4422;SDS011;2224;49.814;8.650;2023-04-24T07:21:10;7.90;;;7.10;;
4422;SDS011;2224;49.814;8.650;2023-04-24T07:23:36;7.90;;;6.90;;
4422;SDS011;2224;49.814;8.650;2023-04-24T07:26:01;8.40;;;6.80;;
4422;SDS011;2224;49.814;8.650;2023-04-24T07:28:27;8.73;;;7.50;;
4422;SDS011;2224;49.814;8.650;2023-04-24T07:30:55;8.60;;;7.80;;
4422;SDS011;2224;49.814;8.650;2023-04-24T07:33:21;8.57;;;7.67;;
4422;SDS011;2224;49.814;8.650;2023-04-24T07:35:47;8.27;;;7.47;;
4422;SDS011;2224;49.814;8.650;2023-04-24T07:38:13;8.33;;;7.53;;
4422;SDS011;2224;49.814;8.650;2023-04-24T07:40:38;8.37;;;7.57;;
4422;SDS011;2224;49.814;8.650;2023-04-24T07:43:03;8.60;;;7.80;;
4422;SDS011;2224;49.814;8.650;2023-04-24T07:45:29;7.37;;;6.67;;
4422;SDS011;2224;49.814;8.650;2023-04-24T07:47:56;8.60;;;7.77;;
4422;SDS011;2224;49.814;8.650;2023-04-24T07:50:21;9.30;;;7.90;;
4422;SDS011;2224;49.814;8.650;2023-04-24T07:52:46;8.50;;;7.70;;
4422;SDS011;2224;49.814;8.650;2023-04-24T07:55:12;11.20;;;7.50;;
4422;SDS011;2224;49.814;8.650;2023-04-24T07:57:37;7.80;;;6.97;;
4422;SDS011;2224;49.814;8.650;2023-04-24T08:00:03;8.13;;;7.30;;
4422;SDS011;2224;49.814;8.650;2023-04-24T08:02:30;6.97;;;6.37;;
4422;SDS011;2224;49.814;8.650;2023-04-24T08:04:55;8.37;;;5.50;;
4422;SDS011;2224;49.814;8.650;2023-04-24T08:07:21;4.20;;;3.80;;
4422;SDS011;2224;49.814;8.650;2023-04-24T08:09:46;3.57;;;3.27;;
4422;SDS011;2224;49.814;8.650;2023-04-24T08:12:11;2.83;;;2.63;;
4422;SDS011;2224;49.814;8.650;2023-04-24T08:14:37;4.97;;;3.17;;
4422;SDS011;2224;49.814;8.650;2023-04-24T08:17:02;3.00;;;2.77;;
4422;SDS011;2224;49.814;8.650;2023-04-24T08:19:28;5.50;;;3.23;;
4422;SDS011;2224;49.814;8.650;2023-04-24T08:21:53;3.20;;;2.90;;
4422;SDS011;2224;49.814;8.650;2023-04-24T08:24:19;3.67;;;3.37;;
4422;SDS011;2224;49.814;8.650;2023-04-24T08:26:44;4.23;;;3.83;;
4422;SDS011;2224;49.814;8.650;2023-04-24T08:29:10;3.70;;;3.40;;
4422;SDS011;2224;49.814;8.650;2023-04-24T08:31:35;5.27;;;3.97;;
4422;SDS011;2224;49.814;8.650;2023-04-24T08:34:00;4.40;;;4.00;;
4422;SDS011;2224;49.814;8.650;2023-04-24T08:36:26;4.43;;;4.00;;
4422;SDS011;2224;49.814;8.650;2023-04-24T08:38:51;4.53;;;4.00;;
4422;SDS011;2224;49.814;8.650;2023-04-24T08:41:17;4.30;;;3.90;;
4422;SDS011;2224;49.814;8.650;2023-04-24T08:43:43;3.87;;;3.57;;
4422;SDS011;2224;49.814;8.650;2023-04-24T08:46:08;5.23;;;3.80;;
4422;SDS011;2224;49.814;8.650;2023-04-24T08:48:35;4.27;;;3.97;;
4422;SDS011;2224;49.814;8.650;2023-04-24T08:51:01;4.93;;;4.47;;
4422;SDS011;2224;49.814;8.650;2023-04-24T08:53:27;4.90;;;4.40;;
4422;SDS011;2224;49.814;8.650;2023-04-24T08:55:54;4.83;;;4.43;;
4422;SDS011;2224;49.814;8.650;2023-04-24T08:58:20;4.90;;;4.50;;
4422;SDS011;2224;49.814;8.650;2023-04-24T09:00:47;7.20;;;4.23;;
4422;SDS011;2224;49.814;8.650;2023-04-24T09:03:13;5.23;;;4.80;;
4422;SDS011;2224;49.814;8.650;2023-04-24T09:05:40;4.53;;;4.13;;
4422;SDS011;2224;49.814;8.650;2023-04-24T09:08:10;4.90;;;4.50;;
4422;SDS011;2224;49.814;8.650;2023-04-24T09:10:36;5.00;;;4.60;;
4422;SDS011;2224;49.814;8.650;2023-04-24T09:13:01;4.60;;;4.20;;
4422;SDS011;2224;49.814;8.650;2023-04-24T09:15:27;4.60;;;4.13;;
4422;SDS011;2224;49.814;8.650;2023-04-24T09:17:52;4.53;;;4.13;;
4422;SDS011;2224;49.814;8.650;2023-04-24T09:20:18;4.30;;;4.00;;
4422;SDS011;2224;49.814;8.650;2023-04-24T09:22:43;4.60;;;4.20;;
4422;SDS011;2224;49.814;8.650;2023-04-24T09:25:10;5.10;;;4.67;;
4422;SDS011;2224;49.814;8.650;2023-04-24T09:27:37;4.93;;;4.53;;
4422;SDS011;2224;49.814;8.650;2023-04-24T09:30:06;5.60;;;5.07;;
4422;SDS011;2224;49.814;8.650;2023-04-24T09:32:33;9.13;;;4.60;;
4422;SDS011;2224;49.814;8.650;2023-04-24T09:35:09;5.03;;;4.63;;
4422;SDS011;2224;49.814;8.650;2023-04-24T09:37:39;5.47;;;4.97;;
4422;SDS011;2224;49.814;8.650;2023-04-24T09:40:10;5.43;;;4.93;;
4422;SDS011;2224;49.814;8.650;2023-04-24T09:42:38;6.63;;;4.93;;
4422;SDS011;2224;49.814;8.650;2023-04-24T09:45:13;5.33;;;4.83;;
4422;SDS011;2224;49.814;8.650;2023-04-24T09:47:39;5.23;;;4.77;;
4422;SDS011;2224;49.814;8.650;2023-04-24T09:50:09;5.73;;;5.20;;
4422;SDS011;2224;49.814;8.650;2023-04-24T09:52:35;5.30;;;4.83;;
4422;SDS011;2224;49.814;8.650;2023-04-24T09:55:00;5.70;;;4.87;;
4422;SDS011;2224;49.814;8.650;2023-04-24T09:57:26;5.37;;;4.87;;
4422;SDS011;2224;49.814;8.650;2023-04-24T09:59:51;5.17;;;4.77;;
4422;SDS011;2224;49.814;8.650;2023-04-24T10:02:21;4.80;;;4.40;;
4422;SDS011;2224;49.814;8.650;2023-04-24T10:04:56;5.47;;;4.43;;
4422;SDS011;2224;49.814;8.650;2023-04-24T10:07:25;5.43;;;4.90;;
4422;SDS011;2224;49.814;8.650;2023-04-24T10:09:51;5.37;;;4.90;;
4422;SDS011;2224;49.814;8.650;2023-04-24T10:12:16;5.17;;;4.67;;
4422;SDS011;2224;49.814;8.650;2023-04-24T10:14:42;5.97;;;4.47;;
4422;SDS011;2224;49.814;8.650;2023-04-24T10:17:07;5.40;;;4.90;;
4422;SDS011;2224;49.814;8.650;2023-04-24T10:19:33;5.07;;;4.67;;
4422;SDS011;2224;49.814;8.650;2023-04-24T10:21:58;4.90;;;4.50;;
4422;SDS011;2224;49.814;8.650;2023-04-24T10:24:24;4.97;;;4.57;;
4422;SDS011;2224;49.814;8.650;2023-04-24T10:26:50;5.23;;;4.80;;
4422;SDS011;2224;49.814;8.650;2023-04-24T10:29:17;4.80;;;4.40;;
4422;SDS011;2224;49.814;8.650;2023-04-24T10:31:44;5.40;;;4.90;;
4422;SDS011;2224;49.814;8.650;2023-04-24T10:34:11;4.43;;;4.13;;
4422;SDS011;2224;49.814;8.650;2023-04-24T10:36:41;4.50;;;4.20;;
4422;SDS011;2224;49.814;8.650;2023-04-24T10:39:09;5.00;;;4.27;;
4422;SDS011;2224;49.814;8.650;2023-04-24T10:41:36;3.97;;;3.57;;
4422;SDS011;2224;49.814;8.650;2023-04-24T10:44:06;4.97;;;4.47;;
4422;SDS011;2224;49.814;8.650;2023-04-24T10:46:34;4.40;;;4.00;;
4422;SDS011;2224;49.814;8.650;2023-04-24T10:49:03;5.60;;;4.20;;
4422;SDS011;2224;49.814;8.650;2023-04-24T10:54:28;4.50;;;4.10;;
4422;SDS011;2224;49.814;8.650;2023-04-24T10:59:48;3.90;;;3.60;;
4422;SDS011;2224;49.814;8.650;2023-04-24T11:02:17;5.50;;;4.47;;
4422;SDS011;2224;49.814;8.650;2023-04-24T11:04:43;4.63;;;4.10;;
4422;SDS011;2224;49.814;8.650;2023-04-24T11:07:09;7.10;;;4.20;;
4422;SDS011;2224;49.814;8.650;2023-04-24T11:09:35;4.70;;;4.30;;
4422;SDS011;2224;49.814;8.650;2023-04-24T11:12:05;4.57;;;4.17;;
4422;SDS011;2224;49.814;8.650;2023-04-24T11:17:34;6.00;;;4.07;;
4422;SDS011;2224;49.814;8.650;2023-04-24T11:20:05;4.37;;;4.03;;
4422;SDS011;2224;49.814;8.650;2023-04-24T11:22:36;5.10;;;4.70;;
4422;SDS011;2224;49.814;8.650;2023-04-24T11:25:04;6.67;;;5.47;;
4422;SDS011;2224;49.814;8.650;2023-04-24T11:27:32;6.43;;;5.90;;
4422;SDS011;2224;49.814;8.650;2023-04-24T11:30:04;6.23;;;5.63;;
4422;SDS011;2224;49.814;8.650;2023-04-24T11:32:34;6.67;;;6.07;;
4422;SDS011;2224;49.814;8.650;2023-04-24T11:35:05;9.53;;;5.77;;
4422;SDS011;2224;49.814;8.650;2023-04-24T11:40:06;8.40;;;7.40;;
4422;SDS011;2224;49.814;8.650;2023-04-24T11:42:35;8.57;;;7.77;;
4422;SDS011;2224;49.814;8.650;2023-04-24T11:45:01;8.93;;;8.00;;
4422;SDS011;2224;49.814;8.650;2023-04-24T11:47:28;8.90;;;8.03;;
4422;SDS011;2224;49.814;8.650;2023-04-24T11:49:54;7.70;;;6.97;;
4422;SDS011;2224;49.814;8.650;2023-04-24T11:52:19;8.30;;;7.50;;
4422;SDS011;2224;49.814;8.650;2023-04-24T11:54:49;8.97;;;7.83;;
4422;SDS011;2224;49.814;8.650;2023-04-24T11:57:15;8.30;;;7.50;;
4422;SDS011;2224;49.814;8.650;2023-04-24T11:59:40;9.20;;;7.67;;
4422;SDS011;2224;49.814;8.650;2023-04-24T12:02:05;8.70;;;7.40;;
4422;SDS011;2224;49.814;8.650;2023-04-24T12:04:40;10.10;;;6.73;;
4422;SDS011;2224;49.814;8.650;2023-04-24T12:07:06;6.80;;;6.10;;
4422;SDS011;2224;49.814;8.650;2023-04-24T12:12:25;6.07;;;5.37;;
4422;SDS011;2224;49.814;8.650;2023-04-24T12:14:56;6.37;;;4.53;;
4422;SDS011;2224;49.814;8.650;2023-04-24T12:19:50;4.50;;;4.00;;
4422;SDS011;2224;49.814;8.650;2023-04-24T12:22:15;3.63;;;3.33;;
4422;SDS011;2224;49.814;8.650;2023-04-24T12:24:57;3.40;;;3.10;;
4422;SDS011;2224;49.814;8.650;2023-04-24T12:27:30;3.40;;;3.10;;
4422;SDS011;2224;49.814;8.650;2023-04-24T12:29:59;3.80;;;3.50;;
4422;SDS011;2224;49.814;8.650;2023-04-24T12:32:26;3.87;;;3.47;;
4422;SDS011;2224;49.814;8.650;2023-04-24T12:34:52;6.50;;;5.03;;
4422;SDS011;2224;49.814;8.650;2023-04-24T12:37:18;5.20;;;4.33;;
4422;SDS011;2224;49.814;8.650;2023-04-24T12:39:44;4.93;;;4.50;;
4422;SDS011;2224;49.814;8.650;2023-04-24T12:42:29;6.53;;;5.47;;
4422;SDS011;2224;49.814;8.650;2023-04-24T12:45:05;5.30;;;4.90;;
4422;SDS011;2224;49.814;8.650;2023-04-24T12:47:31;5.97;;;5.30;;
4422;SDS011;2224;49.814;8.650;2023-04-24T12:49:58;4.97;;;4.57;;
4422;SDS011;2224;49.814;8.650;2023-04-24T12:52:24;5.90;;;4.07;;
4422;SDS011;2224;49.814;8.650;2023-04-24T12:54:52;5.73;;;3.67;;
4422;SDS011;2224;49.814;8.650;2023-04-24T12:57:18;5.40;;;4.90;;
4422;SDS011;2224;49.814;8.650;2023-04-24T12:59:43;4.93;;;4.43;;
4422;SDS011;2224;49.814;8.650;2023-04-24T13:02:09;6.00;;;4.90;;
4422;SDS011;2224;49.814;8.650;2023-04-24T13:04:35;4.67;;;4.27;;
4422;SDS011;2224;49.814;8.650;2023-04-24T13:07:00;5.50;;;4.80;;
4422;SDS011;2224;49.814;8.650;2023-04-24T13:09:26;4.73;;;4.33;;
4422;SDS011;2224;49.814;8.650;2023-04-24T13:11:51;10.20;;;5.00;;
4422;SDS011;2224;49.814;8.650;2023-04-24T13:14:16;6.80;;;4.60;;
4422;SDS011;2224;49.814;8.650;2023-04-24T13:16:41;5.07;;;4.57;;
4422;SDS011;2224;49.814;8.650;2023-04-24T13:19:07;4.50;;;4.07;;
4422;SDS011;2224;49.814;8.650;2023-04-24T13:21:32;7.63;;;4.50;;
4422;SDS011;2224;49.814;8.650;2023-04-24T13:23:57;5.30;;;4.60;;
4422;SDS011;2224;49.814;8.650;2023-04-24T13:26:23;5.93;;;4.73;;
4422;SDS011;2224;49.814;8.650;2023-04-24T13:28:49;5.23;;;4.13;;
4422;SDS011;2224;49.814;8.650;2023-04-24T13:31:15;7.83;;;4.73;;
4422;SDS011;2224;49.814;8.650;2023-04-24T13:33:40;5.60;;;4.10;;
4422;SDS011;2224;49.814;8.650;2023-04-24T13:36:05;5.13;;;3.67;;
4422;SDS011;2224;49.814;8.650;2023-04-24T13:38:31;4.60;;;4.20;;
4422;SDS011;2224;49.814;8.650;2023-04-24T13:40:56;6.43;;;4.87;;
4422;SDS011;2224;49.814;8.650;2023-04-24T13:43:21;4.67;;;4.27;;
4422;SDS011;2224;49.814;8.650;2023-04-24T13:45:47;5.17;;;4.67;;
4422;SDS011;2224;49.814;8.650;2023-04-24T13:48:12;5.27;;;4.77;;
4422;SDS011;2224;49.814;8.650;2023-04-24T13:50:40;4.57;;;4.17;;
4422;SDS011;2224;49.814;8.650;2023-04-24T13:53:06;4.20;;;3.80;;
4422;SDS011;2224;49.814;8.650;2023-04-24T13:55:31;4.73;;;4.23;;
4422;SDS011;2224;49.814;8.650;2023-04-24T13:57:57;5.43;;;4.47;;
4422;SDS011;2224;49.814;8.650;2023-04-24T14:00:22;4.80;;;4.30;;
4422;SDS011;2224;49.814;8.650;2023-04-24T14:02:48;4.80;;;4.20;;
4422;SDS011;2224;49.814;8.650;2023-04-24T14:05:13;6.30;;;4.50;;
4422;SDS011;2224;49.814;8.650;2023-04-24T14:07:40;5.10;;;4.60;;
4422;SDS011;2224;49.814;8.650;2023-04-24T14:10:05;6.40;;;4.83;;
4422;SDS011;2224;49.814;8.650;2023-04-24T14:12:31;4.40;;;4.00;;
4422;SDS011;2224;49.814;8.650;2023-04-24T14:14:57;4.70;;;4.20;;
4422;SDS011;2224;49.814;8.650;2023-04-24T14:17:22;5.10;;;4.60;;
4422;SDS011;2224;49.814;8.650;2023-04-24T14:19:47;6.13;;;4.33;;
4422;SDS011;2224;49.814;8.650;2023-04-24T14:22:13;5.33;;;4.83;;
4422;SDS011;2224;49.814;8.650;2023-04-24T14:24:38;5.43;;;5.03;;
4422;SDS011;2224;49.814;8.650;2023-04-24T14:27:03;4.40;;;4.00;;
4422;SDS011;2224;49.814;8.650;2023-04-24T14:29:29;4.47;;;4.07;;
4422;SDS011;2224;49.814;8.650;2023-04-24T14:31:54;4.80;;;4.30;;
4422;SDS011;2224;49.814;8.650;2023-04-24T14:34:19;6.77;;;4.20;;
4422;SDS011;2224;49.814;8.650;2023-04-24T14:36:45;4.40;;;4.00;;
4422;SDS011;2224;49.814;8.650;2023-04-24T14:39:10;5.03;;;4.50;;
4422;SDS011;2224;49.814;8.650;2023-04-24T14:41:35;5.47;;;4.30;;
4422;SDS011;2224;49.814;8.650;2023-04-24T14:44:02;3.60;;;3.33;;
4422;SDS011;2224;49.814;8.650;2023-04-24T14:46:28;7.33;;;4.27;;
4422;SDS011;2224;49.814;8.650;2023-04-24T14:48:55;6.87;;;4.40;;
4422;SDS011;2224;49.814;8.650;2023-04-24T14:51:21;6.13;;;4.00;;
4422;SDS011;2224;49.814;8.650;2023-04-24T14:53:46;4.77;;;4.33;;
4422;SDS011;2224;49.814;8.650;2023-04-24T14:56:12;4.90;;;4.50;;
4422;SDS011;2224;49.814;8.650;2023-04-24T14:58:38;6.30;;;4.43;;
4422;SDS011;2224;49.814;8.650;2023-04-24T15:01:03;6.10;;;4.53;;
4422;SDS011;2224;49.814;8.650;2023-04-24T15:03:28;4.67;;;4.27;;
4422;SDS011;2224;49.814;8.650;2023-04-24T15:05:54;4.57;;;4.17;;
4422;SDS011;2224;49.814;8.650;2023-04-24T15:08:20;5.40;;;4.37;;
4422;SDS011;2224;49.814;8.650;2023-04-24T15:10:46;5.60;;;5.10;;
4422;SDS011;2224;49.814;8.650;2023-04-24T15:13:11;5.23;;;4.67;;
4422;SDS011;2224;49.814;8.650;2023-04-24T15:15:36;5.23;;;4.73;;
4422;SDS011;2224;49.814;8.650;2023-04-24T15:18:02;4.70;;;4.20;;
4422;SDS011;2224;49.814;8.650;2023-04-24T15:20:27;5.33;;;4.00;;
4422;SDS011;2224;49.814;8.650;2023-04-24T15:22:53;7.90;;;4.60;;
4422;SDS011;2224;49.814;8.650;2023-04-24T15:25:18;4.20;;;3.73;;